Time;durP1;ratioP1;P1;durP2;ratioP2;P2;SDS_P1;SDS_P2;PMS_P1;PMS_P2;Temp;Humidity;BMP_temperature;BMP_pressure;BME280_temperature;BME280_humidity;BME280_pressure;Samples;Min_cycle;Max_cycle;Signal;HPM_P1;HPM_P2
2022/04/29 00:00:27;;;;;;;4.47;3.50;;;;;;;;;;5038336;28;20064;-85
2022/04/29 00:02:53;;;;;;;7.38;4.03;;;;;;;;;;5020782;28;20030;-83
2022/04/29 00:05:19;;;;;;;5.82;3.58;;;;;;;;;;5037438;28;20037;-83
2022/04/29 00:07:45;;;;;;;7.10;3.55;;;;;;;;;;5023109;28;20037;-83
2022/04/29 00:10:12;;;;;;;5.35;3.38;;;;;;;;;;5026620;28;20052;-83
2022/04/29 00:12:47;;;;;;;6.38;3.78;;;;;;;;;;5019762;28;20076;-81
2022/04/29 00:15:14;;;;;;;4.45;3.20;;;;;;;;;;5019447;28;20025;-83
2022/04/29 00:17:40;;;;;;;5.07;3.17;;;;;;;;;;5019891;28;20025;-82
2022/04/29 00:20:06;;;;;;;5.70;3.10;;;;;;;;;;5020083;28;20106;-82
2022/04/29 00:22:31;;;;;;;4.75;3.20;;;;;;;;;;5019634;28;20045;-82
2022/04/29 00:24:57;;;;;;;4.20;3.20;;;;;;;;;;5003346;28;20033;-82
2022/04/29 00:27:22;;;;;;;4.13;3.05;;;;;;;;;;5003571;28;20025;-81
2022/04/29 00:29:48;;;;;;;4.22;2.90;;;;;;;;;;5019450;28;20033;-81
2022/04/29 00:32:13;;;;;;;4.78;3.20;;;;;;;;;;5003609;28;20044;-82
2022/04/29 00:34:39;;;;;;;7.10;3.20;;;;;;;;;;5003268;28;20172;-82
2022/04/29 00:37:04;;;;;;;5.03;3.13;;;;;;;;;;5003766;28;20085;-83
2022/04/29 00:39:30;;;;;;;4.40;3.13;;;;;;;;;;5019474;28;20121;-82
2022/04/29 00:41:55;;;;;;;6.28;2.95;;;;;;;;;;5003454;28;20401;-83
2022/04/29 00:44:21;;;;;;;5.07;3.45;;;;;;;;;;5019401;28;20037;-82
2022/04/29 00:46:49;;;;;;;7.22;3.15;;;;;;;;;;4987662;28;20033;-83
2022/04/29 00:49:15;;;;;;;5.65;3.70;;;;;;;;;;5005115;28;20071;-82
2022/04/29 00:51:42;;;;;;;8.68;3.65;;;;;;;;;;5009877;28;20038;-82
2022/04/29 00:54:08;;;;;;;4.93;3.88;;;;;;;;;;5004271;28;20033;-83
2022/04/29 00:56:37;;;;;;;4.88;3.53;;;;;;;;;;5004806;28;20494;-83
2022/04/29 00:59:12;;;;;;;6.88;3.50;;;;;;;;;;5003468;28;20038;-84
2022/04/29 01:01:38;;;;;;;5.55;3.58;;;;;;;;;;5003846;28;20102;-84
2022/04/29 01:04:03;;;;;;;5.47;3.40;;;;;;;;;;5001847;28;20136;-82
2022/04/29 01:06:29;;;;;;;6.45;3.28;;;;;;;;;;5024369;28;20029;-84
2022/04/29 01:08:55;;;;;;;4.68;3.30;;;;;;;;;;5011645;28;20516;-82
2022/04/29 01:11:25;;;;;;;4.40;3.10;;;;;;;;;;5019113;28;20458;-84
2022/04/29 01:13:51;;;;;;;5.65;2.65;;;;;;;;;;5002995;28;20029;-83
2022/04/29 01:16:18;;;;;;;7.63;3.53;;;;;;;;;;5002603;28;20497;-83
2022/04/29 01:18:45;;;;;;;4.10;3.10;;;;;;;;;;5019431;28;20081;-82
2022/04/29 01:21:12;;;;;;;6.90;3.33;;;;;;;;;;5003055;28;20036;-82
2022/04/29 01:23:38;;;;;;;4.85;3.00;;;;;;;;;;5035340;28;20036;-83
2022/04/29 01:26:04;;;;;;;6.15;3.40;;;;;;;;;;5019287;28;20025;-83
2022/04/29 01:28:31;;;;;;;4.57;3.30;;;;;;;;;;5002356;28;20498;-83
2022/04/29 01:30:57;;;;;;;5.75;3.40;;;;;;;;;;4986829;28;20037;-82
2022/04/29 01:33:23;;;;;;;8.18;3.30;;;;;;;;;;5036522;28;20461;-81
2022/04/29 01:35:48;;;;;;;4.45;3.28;;;;;;;;;;5002051;28;20037;-85
2022/04/29 01:38:16;;;;;;;5.25;3.45;;;;;;;;;;5018671;28;20448;-83
2022/04/29 01:40:42;;;;;;;5.20;3.20;;;;;;;;;;5018513;28;20033;-82
2022/04/29 01:43:13;;;;;;;5.75;3.45;;;;;;;;;;5020463;28;20026;-83
2022/04/29 01:45:38;;;;;;;4.72;2.85;;;;;;;;;;5037836;28;20052;-83
2022/04/29 01:48:30;;;;;;;5.60;3.45;;;;;;;;;;5021253;28;20073;-84
2022/04/29 01:51:23;;;;;;;4.18;2.95;;;;;;;;;;5019142;28;20449;-82
2022/04/29 01:53:53;;;;;;;4.93;3.10;;;;;;;;;;5019842;28;20082;-83
2022/04/29 01:56:20;;;;;;;4.75;3.30;;;;;;;;;;5004801;28;20086;-83
2022/04/29 01:58:46;;;;;;;4.43;2.95;;;;;;;;;;5040141;28;20421;-83
2022/04/29 02:01:13;;;;;;;5.03;3.40;;;;;;;;;;5024012;28;20029;-82
2022/04/29 02:03:39;;;;;;;4.13;3.40;;;;;;;;;;5023977;28;20041;-82
2022/04/29 02:06:04;;;;;;;5.15;3.22;;;;;;;;;;5028482;28;20025;-81
2022/04/29 02:08:31;;;;;;;4.63;2.88;;;;;;;;;;5022849;28;20508;-81
2022/04/29 02:10:57;;;;;;;4.93;3.15;;;;;;;;;;5022804;28;20041;-81
2022/04/29 02:13:26;;;;;;;4.18;2.95;;;;;;;;;;5022730;28;20040;-81
2022/04/29 02:16:14;;;;;;;5.45;3.13;;;;;;;;;;5021111;28;20045;-81
2022/04/29 02:18:41;;;;;;;4.22;2.83;;;;;;;;;;5020254;28;20036;-81
2022/04/29 02:21:07;;;;;;;3.95;2.90;;;;;;;;;;5030314;28;20197;-81
2022/04/29 02:23:33;;;;;;;5.80;3.20;;;;;;;;;;5005745;28;20540;-82
2022/04/29 02:25:59;;;;;;;3.70;2.90;;;;;;;;;;5021881;28;20033;-82
2022/04/29 02:28:25;;;;;;;5.43;2.60;;;;;;;;;;5005353;28;20037;-84
2022/04/29 02:30:50;;;;;;;4.50;2.92;;;;;;;;;;5005713;28;20033;-83
2022/04/29 02:33:17;;;;;;;5.47;3.28;;;;;;;;;;5005882;28;20029;-82
2022/04/29 02:35:42;;;;;;;5.53;3.20;;;;;;;;;;5021342;28;20082;-83
2022/04/29 02:38:09;;;;;;;4.63;2.65;;;;;;;;;;5021458;28;20029;-81
2022/04/29 02:40:34;;;;;;;4.35;3.30;;;;;;;;;;5021623;28;20048;-83
2022/04/29 02:42:59;;;;;;;5.18;3.00;;;;;;;;;;5005936;28;20122;-82
2022/04/29 02:45:25;;;;;;;7.82;3.00;;;;;;;;;;5021575;28;20040;-84
2022/04/29 02:47:52;;;;;;;4.68;2.92;;;;;;;;;;5021886;28;20091;-83
2022/04/29 02:50:17;;;;;;;4.28;3.00;;;;;;;;;;5005555;28;20025;-81
2022/04/29 02:52:49;;;;;;;7.80;3.20;;;;;;;;;;5006575;28;20110;-82
2022/04/29 02:55:14;;;;;;;5.03;3.30;;;;;;;;;;5040997;28;20436;-81
2022/04/29 02:57:47;;;;;;;4.43;2.78;;;;;;;;;;5008409;28;20386;-81
2022/04/29 03:00:13;;;;;;;4.22;2.70;;;;;;;;;;5007498;28;20518;-84
2022/04/29 03:02:38;;;;;;;5.40;2.88;;;;;;;;;;5023038;28;20494;-82
2022/04/29 03:05:04;;;;;;;4.05;3.00;;;;;;;;;;5010821;28;20036;-83
2022/04/29 03:07:30;;;;;;;4.05;2.90;;;;;;;;;;5005636;28;20036;-83
2022/04/29 03:09:57;;;;;;;3.60;2.80;;;;;;;;;;5006550;28;20025;-82
2022/04/29 03:12:23;;;;;;;5.00;3.15;;;;;;;;;;5006046;28;20069;-82
2022/04/29 03:15:15;;;;;;;4.75;3.20;;;;;;;;;;5006430;28;20405;-82
2022/04/29 03:20:24;;;;;;;4.78;3.20;;;;;;;;;;5025164;28;20029;-83
2022/04/29 03:22:51;;;;;;;3.97;2.85;;;;;;;;;;5040854;28;20067;-83
2022/04/29 03:25:17;;;;;;;4.65;3.08;;;;;;;;;;5022459;28;20101;-83
2022/04/29 03:27:43;;;;;;;5.40;2.80;;;;;;;;;;5005494;28;20052;-83
2022/04/29 03:30:09;;;;;;;5.18;3.30;;;;;;;;;;5021276;28;20037;-81
2022/04/29 03:32:34;;;;;;;4.45;2.92;;;;;;;;;;5010598;28;20091;-83
2022/04/29 03:35:05;;;;;;;7.30;3.40;;;;;;;;;;5022214;28;20037;-83
2022/04/29 03:37:31;;;;;;;5.18;3.10;;;;;;;;;;5005284;28;20429;-82
2022/04/29 03:39:56;;;;;;;4.35;3.15;;;;;;;;;;5005586;28;20105;-84
2022/04/29 03:42:22;;;;;;;5.18;3.00;;;;;;;;;;5021538;28;20485;-84
2022/04/29 03:44:48;;;;;;;5.38;3.03;;;;;;;;;;5004502;28;20033;-84
2022/04/29 03:47:15;;;;;;;4.07;3.00;;;;;;;;;;5036968;28;20049;-83
2022/04/29 03:50:08;;;;;;;5.53;3.40;;;;;;;;;;5025042;28;20442;-83
2022/04/29 03:52:47;;;;;;;5.45;3.35;;;;;;;;;;5007856;28;20130;-84
2022/04/29 03:55:14;;;;;;;5.15;3.40;;;;;;;;;;5020333;28;20118;-84
2022/04/29 03:57:40;;;;;;;4.35;3.30;;;;;;;;;;5021474;28;20030;-83
2022/04/29 04:00:06;;;;;;;4.88;3.30;;;;;;;;;;5021494;28;20032;-83
2022/04/29 04:02:42;;;;;;;4.97;3.30;;;;;;;;;;5025867;28;20103;-85
2022/04/29 04:05:08;;;;;;;5.10;3.78;;;;;;;;;;5006946;28;20029;-83
2022/04/29 04:07:34;;;;;;;4.53;3.33;;;;;;;;;;5020194;28;20375;-83
2022/04/29 04:10:09;;;;;;;7.20;3.55;;;;;;;;;;4990396;28;20063;-82
2022/04/29 04:12:46;;;;;;;7.65;3.67;;;;;;;;;;5003802;28;20041;-81
2022/04/29 04:15:19;;;;;;;4.85;3.38;;;;;;;;;;5036550;28;20037;-83
2022/04/29 04:17:48;;;;;;;7.72;3.65;;;;;;;;;;5004107;28;20030;-81
2022/04/29 04:20:14;;;;;;;5.35;3.75;;;;;;;;;;5003198;28;20057;-81
2022/04/29 04:22:57;;;;;;;9.88;3.70;;;;;;;;;;5006453;28;20048;-82
2022/04/29 04:25:23;;;;;;;5.72;3.50;;;;;;;;;;5037673;28;20034;-82
2022/04/29 04:27:48;;;;;;;6.72;3.40;;;;;;;;;;5003957;28;20060;-83
2022/04/29 04:30:14;;;;;;;6.63;3.50;;;;;;;;;;5036856;23;20065;-81
2022/04/29 04:32:42;;;;;;;4.50;3.28;;;;;;;;;;5033125;28;20033;-81
2022/04/29 04:35:08;;;;;;;6.60;3.47;;;;;;;;;;5033488;28;20057;-82
2022/04/29 04:37:35;;;;;;;8.32;3.47;;;;;;;;;;5001932;28;20037;-82
2022/04/29 04:40:04;;;;;;;3.92;3.22;;;;;;;;;;5002376;28;20037;-82
2022/04/29 04:42:44;;;;;;;4.85;3.47;;;;;;;;;;5034719;28;20040;-82
2022/04/29 04:45:10;;;;;;;4.57;3.55;;;;;;;;;;5016379;28;20033;-82
2022/04/29 04:47:44;;;;;;;5.45;3.42;;;;;;;;;;5017132;28;20035;-81
2022/04/29 04:50:33;;;;;;;5.10;3.35;;;;;;;;;;5029906;28;20045;-81
2022/04/29 04:52:58;;;;;;;4.65;3.28;;;;;;;;;;5018354;28;20033;-81
2022/04/29 04:55:23;;;;;;;5.28;3.50;;;;;;;;;;5034078;28;20068;-80
2022/04/29 04:57:49;;;;;;;5.32;3.42;;;;;;;;;;5018039;28;20040;-81
2022/04/29 05:00:15;;;;;;;4.30;3.25;;;;;;;;;;5034148;28;20033;-81
2022/04/29 05:03:00;;;;;;;12.07;3.83;;;;;;;;;;5020016;28;20076;-81
2022/04/29 05:05:54;;;;;;;6.10;3.67;;;;;;;;;;5033704;28;20076;-81
2022/04/29 05:08:19;;;;;;;9.90;4.15;;;;;;;;;;5000780;28;20394;-81
2022/04/29 05:10:47;;;;;;;8.07;4.63;;;;;;;;;;5016885;28;20064;-80
2022/04/29 05:13:14;;;;;;;5.47;3.65;;;;;;;;;;5016540;28;20025;-81
2022/04/29 05:15:42;;;;;;;7.50;3.42;;;;;;;;;;5032397;28;20025;-81
2022/04/29 05:18:16;;;;;;;7.78;3.80;;;;;;;;;;5032855;28;20121;-82
2022/04/29 05:20:55;;;;;;;6.10;3.90;;;;;;;;;;5033255;28;20450;-81
2022/04/29 05:23:21;;;;;;;6.78;4.13;;;;;;;;;;5033124;28;20041;-81
2022/04/29 05:26:06;;;;;;;10.05;4.35;;;;;;;;;;5033726;28;20482;-81
2022/04/29 05:29:01;;;;;;;4.68;3.60;;;;;;;;;;4996266;28;20046;-81
2022/04/29 05:31:58;;;;;;;11.20;4.75;;;;;;;;;;4989725;28;20095;-81
2022/04/29 05:34:43;;;;;;;;;;;;;;;;;;5019072;28;20136;-79
2022/04/29 05:37:35;;;;;;;5.80;3.60;;;;;;;;;;5019660;28;19917;-81
2022/04/29 05:42:51;;;;;;;6.30;3.80;;;;;;;;;;5015854;28;20041;-82
2022/04/29 05:45:16;;;;;;;6.60;4.00;;;;;;;;;;5015426;28;20021;-82
2022/04/29 05:47:43;;;;;;;6.60;3.88;;;;;;;;;;5016348;28;20083;-81
2022/04/29 05:50:08;;;;;;;6.82;4.03;;;;;;;;;;5032549;28;20048;-81
2022/04/29 05:52:37;;;;;;;6.13;3.58;;;;;;;;;;5015743;28;20474;-81
2022/04/29 05:55:03;;;;;;;5.03;3.60;;;;;;;;;;4998782;28;20072;-81
2022/04/29 05:57:31;;;;;;;6.57;3.28;;;;;;;;;;5032774;28;20034;-81
2022/04/29 05:59:58;;;;;;;5.80;3.10;;;;;;;;;;5016504;28;20033;-81
2022/04/29 06:02:48;;;;;;;6.18;2.85;;;;;;;;;;5032311;28;20029;-81
2022/04/29 06:05:17;;;;;;;4.80;3.08;;;;;;;;;;5031349;28;20049;-81
2022/04/29 06:07:44;;;;;;;5.30;3.28;;;;;;;;;;5015855;28;20482;-81
2022/04/29 06:10:16;;;;;;;5.15;2.85;;;;;;;;;;5032163;28;20497;-81
2022/04/29 06:12:43;;;;;;;4.85;3.13;;;;;;;;;;4968764;28;76410;-81
2022/04/29 06:15:18;;;;;;;4.32;3.20;;;;;;;;;;5000121;28;20037;-80
2022/04/29 06:17:59;;;;;;;3.50;3.00;;;;;;;;;;5032087;28;20038;-81
2022/04/29 06:20:43;;;;;;;;;;;;;;;;;;5033250;28;20060;-79
2022/04/29 06:23:27;;;;;;;8.77;3.25;;;;;;;;;;5033483;28;20066;-81
2022/04/29 06:25:54;;;;;;;5.68;3.10;;;;;;;;;;5015098;28;20037;-81
2022/04/29 06:28:20;;;;;;;5.95;2.80;;;;;;;;;;5015725;28;20048;-81
2022/04/29 06:30:46;;;;;;;6.60;2.58;;;;;;;;;;5016565;28;20079;-81
2022/04/29 06:33:34;;;;;;;4.45;2.92;;;;;;;;;;5033724;28;20532;-82
2022/04/29 06:36:01;;;;;;;3.50;2.60;;;;;;;;;;5032118;28;20037;-81
2022/04/29 06:38:27;;;;;;;8.05;2.85;;;;;;;;;;5032641;28;20036;-81
2022/04/29 06:40:56;;;;;;;3.83;2.60;;;;;;;;;;5033419;28;20037;-81
2022/04/29 06:43:29;;;;;;;4.07;2.75;;;;;;;;;;5001946;28;20413;-81
2022/04/29 06:46:27;;;;;;;4.32;2.70;;;;;;;;;;5003790;28;20073;-84
2022/04/29 06:49:11;;;;;;;6.35;2.70;;;;;;;;;;5038010;28;20044;-84
2022/04/29 06:52:06;;;;;;;4.03;2.78;;;;;;;;;;4983358;28;20039;-80
2022/04/29 06:54:36;;;;;;;3.50;2.83;;;;;;;;;;5036702;28;20623;-80
2022/04/29 06:57:08;;;;;;;4.28;2.72;;;;;;;;;;5020548;28;20033;-80
2022/04/29 06:59:33;;;;;;;5.90;2.67;;;;;;;;;;5037006;28;20055;-81
2022/04/29 07:01:59;;;;;;;3.95;2.50;;;;;;;;;;5018256;28;20494;-80
2022/04/29 07:04:28;;;;;;;5.68;2.85;;;;;;;;;;5034830;28;20127;-79
2022/04/29 07:06:54;;;;;;;7.32;2.92;;;;;;;;;;5018287;28;20040;-82
2022/04/29 07:09:20;;;;;;;4.97;2.70;;;;;;;;;;5033901;28;20037;-81
2022/04/29 07:12:04;;;;;;;;;;;;;;;;;;5050269;28;20036;-80
2022/04/29 07:14:46;;;;;;;4.35;2.53;;;;;;;;;;5018137;28;19913;-82
2022/04/29 07:17:11;;;;;;;4.03;2.55;;;;;;;;;;4953084;28;20202;-82
2022/04/29 07:19:41;;;;;;;5.30;2.60;;;;;;;;;;5019712;28;20043;-83
2022/04/29 07:22:07;;;;;;;3.38;2.30;;;;;;;;;;5002910;28;20034;-80
2022/04/29 07:24:39;;;;;;;3.75;2.60;;;;;;;;;;5034552;28;20060;-81
2022/04/29 07:27:06;;;;;;;3.50;2.60;;;;;;;;;;5036397;28;20044;-82
2022/04/29 07:29:31;;;;;;;4.30;2.58;;;;;;;;;;5034315;28;20121;-81
2022/04/29 07:32:05;;;;;;;4.38;2.90;;;;;;;;;;5018482;28;20083;-80
2022/04/29 07:43:32;;;;;;;4.13;2.75;;;;;;;;;;5004570;28;20568;-81
2022/04/29 07:45:58;;;;;;;5.00;2.67;;;;;;;;;;5035019;28;20029;-80
2022/04/29 07:48:30;;;;;;;5.32;2.80;;;;;;;;;;5037652;28;20113;-82
2022/04/29 07:50:58;;;;;;;4.38;2.90;;;;;;;;;;5022039;28;20159;-82
2022/04/29 07:53:24;;;;;;;5.70;2.90;;;;;;;;;;5037482;28;20072;-82
2022/04/29 07:55:50;;;;;;;3.60;2.70;;;;;;;;;;5017601;28;20485;-82
2022/04/29 07:58:16;;;;;;;5.72;2.88;;;;;;;;;;5018703;28;20030;-82
2022/04/29 08:00:43;;;;;;;4.35;2.75;;;;;;;;;;5019481;28;20037;-82
2022/04/29 08:03:09;;;;;;;5.13;2.67;;;;;;;;;;5002829;28;20127;-84
2022/04/29 08:05:56;;;;;;;3.78;2.83;;;;;;;;;;5018601;28;20111;-82
2022/04/29 08:08:22;;;;;;;5.13;2.80;;;;;;;;;;5019591;28;20120;-82
2022/04/29 08:10:49;;;;;;;4.55;2.55;;;;;;;;;;5019599;28;20052;-83
2022/04/29 08:13:15;;;;;;;5.25;3.13;;;;;;;;;;5002889;28;20442;-82
2022/04/29 08:15:59;;;;;;;4.75;2.80;;;;;;;;;;5036790;28;20588;-82
2022/04/29 08:19:03;;;;;;;4.75;2.85;;;;;;;;;;5018047;28;20045;-82
2022/04/29 08:21:51;;;;;;;4.78;2.80;;;;;;;;;;5021912;28;20085;-83
2022/04/29 08:24:17;;;;;;;5.82;2.80;;;;;;;;;;5034874;28;20065;-82
2022/04/29 08:26:43;;;;;;;6.47;2.92;;;;;;;;;;5019139;28;20674;-83
2022/04/29 08:29:10;;;;;;;4.55;2.85;;;;;;;;;;5019081;28;20037;-83
2022/04/29 08:31:36;;;;;;;3.95;2.92;;;;;;;;;;5002944;28;20029;-82
2022/04/29 08:34:04;;;;;;;5.35;3.10;;;;;;;;;;5018269;28;20040;-81
2022/04/29 08:36:31;;;;;;;6.50;2.80;;;;;;;;;;5002742;28;20167;-81
2022/04/29 08:38:56;;;;;;;7.50;2.90;;;;;;;;;;4999655;28;20113;-83
2022/04/29 08:41:22;;;;;;;11.50;3.10;;;;;;;;;;5018775;28;20044;-83
2022/04/29 08:43:48;;;;;;;5.75;2.60;;;;;;;;;;5018565;28;20041;-83
2022/04/29 08:46:21;;;;;;;4.97;2.67;;;;;;;;;;5002309;28;20091;-83
2022/04/29 08:48:58;;;;;;;4.13;2.72;;;;;;;;;;4989561;28;20061;-83
2022/04/29 08:51:23;;;;;;;4.47;2.20;;;;;;;;;;5002671;28;20034;-83
2022/04/29 08:53:49;;;;;;;4.22;2.55;;;;;;;;;;5018459;28;20120;-83
2022/04/29 08:58:58;;;;;;;4.00;2.30;;;;;;;;;;5021431;28;20048;-83
2022/04/29 09:01:24;;;;;;;3.50;2.10;;;;;;;;;;5018919;28;20493;-84
2022/04/29 09:03:49;;;;;;;7.22;2.33;;;;;;;;;;5036233;28;20089;-84
2022/04/29 09:06:22;;;;;;;4.45;2.40;;;;;;;;;;5018077;28;20056;-84
2022/04/29 09:08:47;;;;;;;4.00;2.47;;;;;;;;;;5018381;28;20060;-82
2022/04/29 09:11:26;;;;;;;3.50;2.30;;;;;;;;;;5002161;28;20506;-83
2022/04/29 09:13:51;;;;;;;7.28;2.28;;;;;;;;;;5001759;28;20057;-84
2022/04/29 09:16:26;;;;;;;6.57;2.28;;;;;;;;;;5018969;28;20379;-84
2022/04/29 09:18:53;;;;;;;5.35;2.55;;;;;;;;;;5018966;28;20038;-83
2022/04/29 09:21:22;;;;;;;5.70;2.50;;;;;;;;;;5018379;28;20029;-85
2022/04/29 09:24:00;;;;;;;3.80;2.67;;;;;;;;;;5018164;28;20029;-84
2022/04/29 09:26:44;;;;;;;4.47;2.30;;;;;;;;;;5036509;28;20565;-84
2022/04/29 09:29:19;;;;;;;6.72;2.70;;;;;;;;;;5034935;28;20059;-84
2022/04/29 09:32:01;;;;;;;4.63;2.25;;;;;;;;;;5003020;28;20087;-84
2022/04/29 09:34:50;;;;;;;4.05;2.60;;;;;;;;;;5005795;28;20072;-83
2022/04/29 09:37:20;;;;;;;3.40;2.40;;;;;;;;;;5033979;28;20402;-84
2022/04/29 09:39:51;;;;;;;2.97;2.10;;;;;;;;;;5016976;28;20025;-84
2022/04/29 09:42:17;;;;;;;5.90;2.38;;;;;;;;;;5017402;28;20474;-84
2022/04/29 09:44:42;;;;;;;4.28;2.10;;;;;;;;;;5016911;28;20078;-84
2022/04/29 09:47:34;;;;;;;2.97;2.22;;;;;;;;;;5016946;28;20567;-84
2022/04/29 09:50:01;;;;;;;3.50;2.33;;;;;;;;;;5032113;28;20045;-83
2022/04/29 09:52:30;;;;;;;4.30;2.10;;;;;;;;;;5035027;28;20413;-84
2022/04/29 09:54:56;;;;;;;5.07;2.00;;;;;;;;;;5033248;28;20044;-83
2022/04/29 09:57:26;;;;;;;3.45;2.42;;;;;;;;;;5016451;28;20037;-83
2022/04/29 09:59:55;;;;;;;7.55;2.60;;;;;;;;;;5035130;28;20041;-83
2022/04/29 10:02:26;;;;;;;4.32;2.42;;;;;;;;;;5017148;28;20041;-85
2022/04/29 10:04:57;;;;;;;3.95;2.72;;;;;;;;;;5016593;28;20064;-84
2022/04/29 10:07:23;;;;;;;3.88;2.70;;;;;;;;;;5017128;28;20029;-85
2022/04/29 10:09:55;;;;;;;3.90;2.40;;;;;;;;;;5017754;28;20579;-83
2022/04/29 10:12:22;;;;;;;4.93;2.50;;;;;;;;;;5034843;28;20063;-84
2022/04/29 10:15:05;;;;;;;5.53;2.80;;;;;;;;;;4996850;28;20378;-84
2022/04/29 10:23:38;;;;;;;7.00;2.50;;;;;;;;;;5017292;28;20100;-86
2022/04/29 10:26:04;;;;;;;5.65;2.50;;;;;;;;;;5018307;28;20038;-83
2022/04/29 10:28:29;;;;;;;3.55;2.50;;;;;;;;;;4995606;28;20046;-83
2022/04/29 10:31:09;;;;;;;4.05;2.60;;;;;;;;;;5019745;28;20072;-84
2022/04/29 10:33:36;;;;;;;3.85;2.50;;;;;;;;;;5005283;28;20034;-86
2022/04/29 10:36:08;;;;;;;7.13;2.50;;;;;;;;;;5020396;28;20038;-86
2022/04/29 10:38:40;;;;;;;4.00;2.38;;;;;;;;;;5003824;28;20038;-85
2022/04/29 10:41:06;;;;;;;4.03;2.50;;;;;;;;;;5018680;28;20065;-84
2022/04/29 10:43:31;;;;;;;3.90;2.47;;;;;;;;;;5020198;28;20288;-87
2022/04/29 10:46:15;;;;;;;5.47;2.45;;;;;;;;;;5018367;28;20080;-85
2022/04/29 10:48:52;;;;;;;5.13;2.30;;;;;;;;;;5005247;28;20071;-86
2022/04/29 10:51:36;;;;;;;3.53;2.17;;;;;;;;;;5003831;28;20109;-85
2022/04/29 10:54:34;;;;;;;3.13;2.10;;;;;;;;;;5022648;28;20399;-86
2022/04/29 10:57:39;;;;;;;3.00;2.00;;;;;;;;;;4941933;29;20110;-85
2022/04/29 11:00:09;;;;;;;4.63;2.38;;;;;;;;;;4941683;29;20047;-85
2022/04/29 11:02:38;;;;;;;5.03;2.30;;;;;;;;;;4977004;28;20045;-85
2022/04/29 11:05:04;;;;;;;5.07;2.08;;;;;;;;;;5019659;28;20036;-84
2022/04/29 11:07:42;;;;;;;3.35;2.10;;;;;;;;;;5003272;28;20168;-85
2022/04/29 11:10:10;;;;;;;5.40;2.10;;;;;;;;;;5019493;28;20042;-85
2022/04/29 11:12:38;;;;;;;4.15;2.28;;;;;;;;;;5019049;28;20060;-84
2022/04/29 11:15:26;;;;;;;3.35;2.17;;;;;;;;;;4971057;28;20046;-85
2022/04/29 11:18:23;;;;;;;3.50;2.10;;;;;;;;;;5002097;28;20026;-85
2022/04/29 11:20:56;;;;;;;5.75;2.20;;;;;;;;;;5018617;28;20390;-85
2022/04/29 11:26:18;;;;;;;3.72;2.10;;;;;;;;;;5018531;28;20492;-84
2022/04/29 11:28:52;;;;;;;3.78;2.00;;;;;;;;;;5000831;28;20029;-83
2022/04/29 11:31:34;;;;;;;3.50;2.10;;;;;;;;;;5018063;28;20041;-85
2022/04/29 11:34:07;;;;;;;2.33;1.83;;;;;;;;;;5018969;28;20037;-85
2022/04/29 11:36:32;;;;;;;4.65;1.90;;;;;;;;;;5003365;28;20037;-84
2022/04/29 11:38:58;;;;;;;2.30;1.70;;;;;;;;;;5020542;28;20095;-84
2022/04/29 11:41:27;;;;;;;3.50;1.85;;;;;;;;;;5020887;28;20029;-85
2022/04/29 11:43:52;;;;;;;3.85;1.77;;;;;;;;;;5019660;28;20034;-85
2022/04/29 11:46:18;;;;;;;7.03;1.83;;;;;;;;;;5019768;28;20070;-85
2022/04/29 11:48:54;;;;;;;3.22;1.80;;;;;;;;;;5002577;28;20065;-85
2022/04/29 11:51:20;;;;;;;7.38;2.00;;;;;;;;;;5018066;28;20473;-85
2022/04/29 11:54:12;;;;;;;4.40;1.95;;;;;;;;;;5002423;28;20038;-84
2022/04/29 11:56:39;;;;;;;4.00;1.90;;;;;;;;;;4999550;28;20049;-84
2022/04/29 11:59:09;;;;;;;6.15;1.90;;;;;;;;;;5020033;28;20034;-85
2022/04/29 12:01:35;;;;;;;2.40;1.67;;;;;;;;;;5018974;28;20045;-85
2022/04/29 12:04:00;;;;;;;2.63;1.75;;;;;;;;;;5017992;28;20041;-85
2022/04/29 12:06:26;;;;;;;2.40;1.80;;;;;;;;;;5002767;28;20042;-84
2022/04/29 12:08:51;;;;;;;4.30;1.95;;;;;;;;;;5018368;28;20041;-84
2022/04/29 12:11:24;;;;;;;3.67;1.90;;;;;;;;;;5019473;28;20541;-85
2022/04/29 12:13:49;;;;;;;4.07;2.08;;;;;;;;;;5018190;28;20045;-84
2022/04/29 12:16:15;;;;;;;3.65;2.20;;;;;;;;;;5016954;28;20034;-84
2022/04/29 12:18:44;;;;;;;2.78;1.98;;;;;;;;;;4985877;28;20418;-85
2022/04/29 12:21:11;;;;;;;2.97;1.90;;;;;;;;;;5018194;28;20502;-85
2022/04/29 12:23:40;;;;;;;3.38;2.20;;;;;;;;;;5018270;28;20638;-85
2022/04/29 12:26:07;;;;;;;2.83;2.10;;;;;;;;;;5017182;28;20026;-84
2022/04/29 12:28:35;;;;;;;5.38;2.00;;;;;;;;;;5001404;28;20041;-85
2022/04/29 12:36:59;;;;;;;6.65;2.25;;;;;;;;;;5017435;28;20037;-85
2022/04/29 12:39:39;;;;;;;4.32;2.33;;;;;;;;;;5001718;28;20475;-84
2022/04/29 12:42:08;;;;;;;3.17;2.15;;;;;;;;;;5017849;28;20119;-85
2022/04/29 12:45:14;;;;;;;4.25;2.30;;;;;;;;;;5001495;28;20053;-85
2022/04/29 12:47:44;;;;;;;5.78;2.20;;;;;;;;;;5001548;28;20097;-84
2022/04/29 12:50:20;;;;;;;3.92;2.30;;;;;;;;;;5018032;28;20398;-85
2022/04/29 12:52:50;;;;;;;4.47;2.40;;;;;;;;;;5018076;28;20038;-85
2022/04/29 12:55:16;;;;;;;5.85;2.20;;;;;;;;;;5017064;28;20406;-85
2022/04/29 12:57:42;;;;;;;4.40;1.92;;;;;;;;;;5018764;28;20033;-85
2022/04/29 13:00:08;;;;;;;5.43;2.20;;;;;;;;;;5002458;28;20311;-84
2022/04/29 13:02:33;;;;;;;5.30;2.30;;;;;;;;;;5019662;28;20065;-85
2022/04/29 13:05:00;;;;;;;4.78;2.20;;;;;;;;;;5017039;28;20038;-84
2022/04/29 13:07:30;;;;;;;4.15;2.10;;;;;;;;;;5002386;28;20026;-84
2022/04/29 13:09:56;;;;;;;5.82;2.47;;;;;;;;;;4999616;28;20169;-83
2022/04/29 13:12:21;;;;;;;4.65;2.30;;;;;;;;;;5016464;28;20062;-83
2022/04/29 13:15:01;;;;;;;6.25;2.50;;;;;;;;;;4998533;28;20506;-83
2022/04/29 13:17:27;;;;;;;6.45;2.22;;;;;;;;;;5015780;28;20030;-83
2022/04/29 13:19:53;;;;;;;4.65;2.00;;;;;;;;;;5015489;28;20137;-83
2022/04/29 13:22:19;;;;;;;7.28;2.53;;;;;;;;;;4999233;28;20117;-82
2022/04/29 13:24:45;;;;;;;3.25;2.03;;;;;;;;;;4998902;28;20040;-83
2022/04/29 13:27:11;;;;;;;3.92;2.20;;;;;;;;;;5015580;28;20116;-82
2022/04/29 13:29:36;;;;;;;3.42;2.35;;;;;;;;;;4998616;28;20085;-83
2022/04/29 13:32:02;;;;;;;3.25;2.00;;;;;;;;;;5016735;28;20030;-83
2022/04/29 13:34:27;;;;;;;4.70;2.47;;;;;;;;;;4998252;28;20030;-82
2022/04/29 13:36:53;;;;;;;5.95;2.28;;;;;;;;;;5015143;28;20402;-83
2022/04/29 13:39:18;;;;;;;4.22;2.25;;;;;;;;;;5015089;28;20478;-83
2022/04/29 13:41:59;;;;;;;3.35;2.50;;;;;;;;;;4998246;28;20387;-82
2022/04/29 13:44:25;;;;;;;5.35;2.22;;;;;;;;;;5015703;28;20089;-83
2022/04/29 13:46:50;;;;;;;5.80;2.45;;;;;;;;;;4999312;28;20033;-83
2022/04/29 13:49:16;;;;;;;3.80;2.22;;;;;;;;;;4998617;28;20033;-83
2022/04/29 13:51:41;;;;;;;3.42;2.40;;;;;;;;;;5015822;28;20030;-83
2022/04/29 13:54:07;;;;;;;5.32;2.45;;;;;;;;;;5015401;28;20135;-82
2022/04/29 13:56:33;;;;;;;5.63;2.50;;;;;;;;;;5016026;28;20038;-86
2022/04/29 13:58:58;;;;;;;6.07;2.50;;;;;;;;;;5001303;28;20036;-84
2022/04/29 14:01:24;;;;;;;4.00;2.30;;;;;;;;;;5001444;28;20560;-85
2022/04/29 14:03:49;;;;;;;3.67;2.10;;;;;;;;;;5001157;28;20117;-84
2022/04/29 14:06:15;;;;;;;5.85;2.28;;;;;;;;;;5015857;28;20060;-84
2022/04/29 14:08:42;;;;;;;3.75;2.30;;;;;;;;;;5017834;28;20541;-84
2022/04/29 14:11:09;;;;;;;4.00;2.15;;;;;;;;;;5000613;28;20053;-85
2022/04/29 14:13:36;;;;;;;3.55;2.42;;;;;;;;;;5001046;28;20066;-85
2022/04/29 14:16:02;;;;;;;4.65;2.30;;;;;;;;;;4999432;28;20414;-86
2022/04/29 14:18:28;;;;;;;4.18;2.30;;;;;;;;;;5018570;28;20050;-84
2022/04/29 14:20:53;;;;;;;5.45;2.40;;;;;;;;;;5018420;28;20040;-84
2022/04/29 14:23:19;;;;;;;9.23;2.47;;;;;;;;;;5017910;28;20113;-85
2022/04/29 14:25:44;;;;;;;4.93;2.20;;;;;;;;;;5016981;28;20502;-84
2022/04/29 14:28:10;;;;;;;2.80;2.00;;;;;;;;;;5017505;28;20026;-85
2022/04/29 14:30:36;;;;;;;5.18;2.30;;;;;;;;;;4999830;28;20042;-85
2022/04/29 14:33:01;;;;;;;3.00;2.05;;;;;;;;;;5016117;28;20061;-85
2022/04/29 14:35:27;;;;;;;2.78;1.85;;;;;;;;;;5016581;28;20069;-85
2022/04/29 14:37:52;;;;;;;3.47;2.00;;;;;;;;;;5017503;28;20038;-84
2022/04/29 14:40:18;;;;;;;3.08;1.95;;;;;;;;;;5016306;28;20503;-85
2022/04/29 14:42:43;;;;;;;4.10;2.40;;;;;;;;;;4983879;28;20033;-85
2022/04/29 14:45:09;;;;;;;3.38;2.25;;;;;;;;;;5014918;28;20034;-85
2022/04/29 14:47:36;;;;;;;4.32;2.10;;;;;;;;;;5000096;28;20081;-84
2022/04/29 14:50:02;;;;;;;3.70;2.10;;;;;;;;;;5016377;28;20487;-84
2022/04/29 14:52:29;;;;;;;5.60;2.17;;;;;;;;;;4999862;28;20109;-85
2022/04/29 14:54:54;;;;;;;2.70;1.85;;;;;;;;;;5016227;28;20109;-84
2022/04/29 14:57:20;;;;;;;6.30;2.00;;;;;;;;;;5015188;28;20077;-84
2022/04/29 14:59:45;;;;;;;2.95;2.08;;;;;;;;;;5017175;28;20127;-84
2022/04/29 15:02:11;;;;;;;5.43;2.17;;;;;;;;;;5016058;28;20116;-84
2022/04/29 15:04:36;;;;;;;6.97;2.50;;;;;;;;;;5018160;28;20033;-85
2022/04/29 15:07:02;;;;;;;4.55;2.30;;;;;;;;;;5019347;28;20105;-85
2022/04/29 15:17:40;;;;;;;5.28;2.30;;;;;;;;;;5019093;28;20483;-84
2022/04/29 15:20:06;;;;;;;4.35;2.25;;;;;;;;;;5002182;28;20101;-85
2022/04/29 15:22:32;;;;;;;8.10;1.95;;;;;;;;;;5002462;28;20518;-84
2022/04/29 15:24:58;;;;;;;4.07;2.10;;;;;;;;;;5019308;28;20041;-84
2022/04/29 15:27:23;;;;;;;3.45;2.10;;;;;;;;;;5002158;28;20049;-84
2022/04/29 15:29:49;;;;;;;3.40;2.10;;;;;;;;;;5002152;28;20037;-84
2022/04/29 15:32:15;;;;;;;3.83;1.92;;;;;;;;;;5002417;28;20489;-84
2022/04/29 15:34:40;;;;;;;4.80;2.22;;;;;;;;;;5001947;28;20069;-84
2022/04/29 15:37:06;;;;;;;3.83;2.10;;;;;;;;;;5017820;28;20032;-84
2022/04/29 15:39:31;;;;;;;3.75;2.00;;;;;;;;;;5019908;28;20061;-84